KPIE/PIE METAR and TAF weather

Enter ICAO airport designator
Station Type Date Time Source
KPIE METAR 2022/10/01 07:53 UTC NOAA

KPIE 010753Z AUTO 04006KT 10SM BKN041 21/18 A2982 RMK AO2 SLP096 T02110183


Station Type Date Time Source
KPIE Decoded METAR 2022/10/01 07:53 UTC NOAA

ST PETERSBURG/CLEARWATER, FL, United States (KPIE) 27-55N 82-41W 4M
Oct 01, 2022 - 03:53 AM EDT / 2022.10.01 0753 UTC
Wind: from the NE (040 degrees) at 7 MPH (6 KT):0
Visibility: 10 mile(s):0
Sky conditions: mostly cloudy
Temperature: 70.0 F (21.1 C)
Dew Point: 64.9 F (18.3 C)
Relative Humidity: 84%
Pressure (altimeter): 29.82 in. Hg (1009 hPa)
ob: KPIE 010753Z AUTO 04006KT 10SM BKN041 21/18 A2982 RMK AO2 SLP096 T02110183
cycle: 8

Station Type Date Time Source
KPIE TAF 2022/10/01 06:40 UTC NOAA

TAF KPIE 010538Z 0106/0206 06004KT P6SM SCT040
TEMPO 0106/0109 BKN040
FM012000 32007KT P6SM FEW050
FM020200 33004KT P6SM FEW040

Example: see airport list